Time;durP1;ratioP1;P1;durP2;ratioP2;P2;SDS_P1;SDS_P2;PMS_P1;PMS_P2;Temp;Humidity;BMP_temperature;BMP_pressure;BME280_temperature;BME280_humidity;BME280_pressure;Samples;Min_cycle;Max_cycle;Signal;HPM_P1;HPM_P2
2022/06/08 00:01:33;;;;;;;2.10;1.02;;;18.20;99.90;;;;;;4303676;33;20165;-65
2022/06/08 00:04:01;;;;;;;0.40;0.40;;;18.20;99.90;;;;;;4302766;33;20088;-66
2022/06/08 00:06:26;;;;;;;0.30;0.30;;;18.30;99.90;;;;;;4301005;33;20562;-66
2022/06/08 00:08:52;;;;;;;0.25;0.25;;;18.30;99.90;;;;;;4307748;33;20084;-66
2022/06/08 00:11:18;;;;;;;0.30;0.30;;;18.20;99.90;;;;;;4305719;33;20485;-65
2022/06/08 00:13:44;;;;;;;0.40;0.40;;;18.20;99.90;;;;;;4302586;33;20108;-65
2022/06/08 00:16:11;;;;;;;2.08;0.88;;;18.20;99.90;;;;;;4303797;33;20129;-65
2022/06/08 00:18:39;;;;;;;0.52;0.52;;;18.20;99.90;;;;;;4306027;33;20069;-65
2022/06/08 00:21:05;;;;;;;0.47;0.47;;;18.00;99.90;;;;;;4304854;33;20841;-65
2022/06/08 00:23:30;;;;;;;1.50;0.50;;;17.90;99.90;;;;;;4307928;33;20095;-65
2022/06/08 00:25:56;;;;;;;0.30;0.30;;;17.90;99.90;;;;;;4303731;33;21476;-65
2022/06/08 00:28:21;;;;;;;0.40;0.40;;;18.00;99.90;;;;;;4305530;33;20123;-65
2022/06/08 00:30:47;;;;;;;0.30;0.30;;;17.90;99.90;;;;;;4303630;33;20104;-65
2022/06/08 00:33:12;;;;;;;0.20;0.20;;;18.10;99.90;;;;;;4305521;33;20072;-65
2022/06/08 00:35:38;;;;;;;0.20;0.20;;;18.10;99.90;;;;;;4305683;33;20063;-65
2022/06/08 00:38:03;;;;;;;0.30;0.30;;;18.20;99.90;;;;;;4306416;33;20176;-65
2022/06/08 00:40:55;;;;;;;0.45;0.40;;;18.10;99.90;;;;;;4305728;33;20512;-65
2022/06/08 00:43:21;;;;;;;0.43;0.43;;;18.10;99.90;;;;;;4305073;33;20100;-65
2022/06/08 00:45:47;;;;;;;0.30;0.30;;;18.10;99.90;;;;;;4302097;33;20614;-65
2022/06/08 00:48:13;;;;;;;0.30;0.30;;;18.00;99.90;;;;;;4306286;33;20131;-65
2022/06/08 00:50:43;;;;;;;0.40;0.40;;;18.00;99.90;;;;;;4305325;33;20129;-65
2022/06/08 00:53:10;;;;;;;;;;;18.00;99.90;;;;;;4303810;33;20536;-65
2022/06/08 00:55:38;;;;;;;0.25;0.25;;;17.90;99.90;;;;;;4303298;33;20034;-64
2022/06/08 00:58:11;;;;;;;0.60;0.57;;;17.90;99.90;;;;;;4303878;33;20077;-65
2022/06/08 01:00:39;;;;;;;0.30;0.30;;;17.90;99.90;;;;;;4303688;33;20111;-65
2022/06/08 01:03:07;;;;;;;0.32;0.32;;;17.70;99.90;;;;;;4292757;33;20080;-65
2022/06/08 01:05:52;;;;;;;0.35;0.35;;;17.70;99.90;;;;;;4305825;33;20112;-65
2022/06/08 01:08:22;;;;;;;0.40;0.40;;;17.70;99.90;;;;;;4307639;33;20088;-65
2022/06/08 01:10:51;;;;;;;0.30;0.30;;;17.60;99.90;;;;;;4305919;33;20075;-65
2022/06/08 01:13:17;;;;;;;2.58;0.77;;;17.40;99.90;;;;;;4305115;33;20709;-65
2022/06/08 01:15:43;;;;;;;0.30;0.30;;;17.40;99.90;;;;;;4304212;33;20151;-65
2022/06/08 01:18:09;;;;;;;1.02;0.45;;;17.30;99.90;;;;;;4291672;33;20276;-64
2022/06/08 01:20:35;;;;;;;0.20;0.20;;;17.10;99.90;;;;;;4303205;33;20084;-64
2022/06/08 01:23:01;;;;;;;0.40;0.40;;;17.00;99.90;;;;;;4304943;33;20416;-64
2022/06/08 01:25:37;;;;;;;0.40;0.40;;;17.00;99.90;;;;;;4302137;33;20084;-64
2022/06/08 01:28:11;;;;;;;0.32;0.32;;;17.00;99.90;;;;;;4305041;33;20096;-64
2022/06/08 01:30:50;;;;;;;0.30;0.30;;;17.00;99.90;;;;;;4301994;33;80282;-65
2022/06/08 01:33:43;;;;;;;0.40;0.40;;;17.00;99.90;;;;;;4293794;33;20084;-65
2022/06/08 01:36:26;;;;;;;0.30;0.30;;;16.90;99.90;;;;;;4304644;33;20092;-65
2022/06/08 01:39:23;;;;;;;0.40;0.40;;;16.80;99.90;;;;;;4304093;33;20536;-65
2022/06/08 01:42:18;;;;;;;0.40;0.40;;;16.80;99.90;;;;;;4300740;33;20076;-65
2022/06/08 01:45:28;;;;;;;3.60;1.08;;;16.70;99.90;;;;;;4301522;33;20087;-65
2022/06/08 01:48:14;;;;;;;0.40;0.37;;;16.70;99.90;;;;;;4303442;33;20494;-65
2022/06/08 01:50:50;;;;;;;0.40;0.40;;;16.70;99.90;;;;;;4302519;33;20151;-65
2022/06/08 01:53:41;;;;;;;1.08;0.93;;;16.80;99.90;;;;;;4305148;33;20104;-65
2022/06/08 01:56:20;;;;;;;0.40;0.40;;;16.80;99.90;;;;;;4303662;33;20116;-65
2022/06/08 01:58:52;;;;;;;0.30;0.30;;;16.70;99.90;;;;;;4303036;33;20067;-65
2022/06/08 02:01:28;;;;;;;0.20;0.20;;;16.60;99.90;;;;;;4304058;33;20126;-65
2022/06/08 02:04:06;;;;;;;0.30;0.30;;;16.60;99.90;;;;;;4304401;33;20528;-65
2022/06/08 02:06:47;;;;;;;0.35;0.30;;;16.50;99.90;;;;;;4305682;33;20467;-65
2022/06/08 02:09:19;;;;;;;0.65;0.50;;;16.60;99.90;;;;;;4304570;33;20380;-65
2022/06/08 02:11:55;;;;;;;0.55;0.55;;;16.40;99.90;;;;;;4290469;33;20068;-65
2022/06/08 02:14:27;;;;;;;0.50;0.50;;;16.40;99.90;;;;;;4306450;33;20087;-65
2022/06/08 02:16:58;;;;;;;0.82;0.60;;;16.30;99.90;;;;;;4302299;33;20084;-65
2022/06/08 02:19:33;;;;;;;0.40;0.40;;;16.20;99.90;;;;;;4303599;33;20080;-65
2022/06/08 02:22:10;;;;;;;0.62;0.62;;;16.20;99.90;;;;;;4304082;33;20084;-65
2022/06/08 02:24:45;;;;;;;0.30;0.30;;;16.20;99.90;;;;;;4303402;33;22015;-65
2022/06/08 02:27:17;;;;;;;0.40;0.40;;;16.30;99.90;;;;;;4305154;33;20076;-65
2022/06/08 02:29:50;;;;;;;0.40;0.40;;;16.20;99.90;;;;;;4304444;33;20075;-65
2022/06/08 02:34:31;;;;;;;0.90;0.82;;;16.20;99.90;;;;;;4302377;33;20538;-65
2022/06/08 02:35:16;;;;;;;0.65;0.65;;;16.20;99.90;;;;;;4302118;33;20528;-65
2022/06/08 02:37:46;;;;;;;0.50;0.50;;;16.20;99.90;;;;;;4301515;33;20162;-65
2022/06/08 02:40:18;;;;;;;0.60;0.60;;;16.20;99.90;;;;;;4304664;33;20063;-65
2022/06/08 02:42:47;;;;;;;0.30;0.30;;;16.00;99.90;;;;;;4301308;33;20122;-65
2022/06/08 02:45:19;;;;;;;0.60;0.60;;;15.90;99.90;;;;;;4304040;33;20165;-65
2022/06/08 02:47:47;;;;;;;0.30;0.30;;;15.90;99.90;;;;;;4302493;33;20081;-65
2022/06/08 02:50:18;;;;;;;0.40;0.40;;;16.00;99.90;;;;;;4305513;33;20450;-66
2022/06/08 02:52:45;;;;;;;0.60;0.60;;;16.00;99.90;;;;;;4303393;33;20125;-64
2022/06/08 02:55:18;;;;;;;0.47;0.47;;;16.10;99.90;;;;;;4302691;33;20484;-63
2022/06/08 02:57:51;;;;;;;2.08;1.00;;;16.10;99.90;;;;;;4301191;33;20591;-63
2022/06/08 03:00:24;;;;;;;0.80;0.50;;;16.00;99.90;;;;;;4303821;33;20403;-63
2022/06/08 03:03:01;;;;;;;0.20;0.20;;;16.00;99.90;;;;;;4302096;33;20128;-64
2022/06/08 03:05:32;;;;;;;0.40;0.40;;;16.10;99.90;;;;;;4302813;33;20097;-63
2022/06/08 03:08:00;;;;;;;;;;;16.10;99.90;;;;;;4304056;33;20127;-63
2022/06/08 03:10:35;;;;;;;0.80;0.60;;;15.90;99.90;;;;;;4302670;33;20388;-63
2022/06/08 03:13:15;;;;;;;0.60;0.60;;;15.70;99.90;;;;;;4293563;33;20060;-63
2022/06/08 03:15:43;;;;;;;0.70;0.70;;;15.70;99.90;;;;;;4303857;33;20108;-63
2022/06/08 03:18:08;;;;;;;0.35;0.35;;;15.60;99.90;;;;;;4305685;33;20142;-63
2022/06/08 03:20:35;;;;;;;2.92;0.82;;;15.80;99.90;;;;;;4303691;33;20153;-63
2022/06/08 03:23:01;;;;;;;14.07;0.82;;;15.90;99.90;;;;;;4304145;33;20104;-63
2022/06/08 03:25:26;;;;;;;0.50;0.50;;;15.90;99.90;;;;;;4305083;33;20064;-63
2022/06/08 03:27:53;;;;;;;0.40;0.40;;;15.90;99.90;;;;;;4302872;33;20151;-63
2022/06/08 03:30:19;;;;;;;0.40;0.40;;;16.00;99.90;;;;;;4301756;33;20750;-63
2022/06/08 03:32:45;;;;;;;4.30;1.10;;;15.90;99.90;;;;;;4290634;33;20571;-63
2022/06/08 03:35:11;;;;;;;1.62;0.75;;;16.20;99.90;;;;;;4303315;33;20161;-63
2022/06/08 03:37:37;;;;;;;0.50;0.50;;;16.20;99.90;;;;;;4303213;33;20076;-63
2022/06/08 03:40:04;;;;;;;0.40;0.40;;;16.20;99.90;;;;;;4289904;33;20076;-63
2022/06/08 03:42:29;;;;;;;0.40;0.40;;;16.20;99.90;;;;;;4291268;33;20120;-63
2022/06/08 03:44:55;;;;;;;0.30;0.30;;;16.10;99.90;;;;;;4301668;33;20115;-63
2022/06/08 03:47:25;;;;;;;0.52;0.52;;;16.10;99.90;;;;;;4305127;33;20100;-63
2022/06/08 03:49:53;;;;;;;0.60;0.60;;;16.10;99.90;;;;;;4307129;33;20683;-63
2022/06/08 03:52:22;;;;;;;0.70;0.55;;;16.10;99.90;;;;;;4306821;33;20138;-66
2022/06/08 03:54:52;;;;;;;0.57;0.57;;;16.20;99.90;;;;;;4305557;33;20089;-66
2022/06/08 03:57:19;;;;;;;1.40;0.77;;;16.20;99.90;;;;;;4305765;33;20072;-66
2022/06/08 03:59:47;;;;;;;2.35;0.90;;;16.30;99.90;;;;;;4305649;33;20083;-65
2022/06/08 04:02:13;;;;;;;4.10;1.17;;;16.30;99.90;;;;;;4308099;33;20072;-64
2022/06/08 04:04:39;;;;;;;6.07;1.23;;;16.40;99.90;;;;;;4304878;33;20068;-64
2022/06/08 04:07:05;;;;;;;0.65;0.65;;;16.40;99.90;;;;;;4305751;33;20104;-64
2022/06/08 04:09:31;;;;;;;0.95;0.95;;;16.50;99.90;;;;;;4305642;33;20071;-64
2022/06/08 04:11:56;;;;;;;0.57;0.57;;;16.50;99.90;;;;;;4306019;33;20151;-64
2022/06/08 04:14:22;;;;;;;0.40;0.40;;;16.60;99.90;;;;;;4307415;33;20450;-64
2022/06/08 04:16:48;;;;;;;5.45;1.15;;;16.70;99.90;;;;;;4306031;33;20238;-64
2022/06/08 04:19:14;;;;;;;0.40;0.40;;;16.70;99.90;;;;;;4302735;33;20097;-64
2022/06/08 04:21:41;;;;;;;0.30;0.30;;;16.80;99.90;;;;;;4294723;33;20859;-64
2022/06/08 04:24:08;;;;;;;1.15;0.95;;;16.80;99.90;;;;;;4300466;33;20056;-64
2022/06/08 04:26:34;;;;;;;3.72;0.80;;;16.80;99.90;;;;;;4303414;33;20071;-64
2022/06/08 04:29:00;;;;;;;1.75;0.77;;;16.80;99.90;;;;;;4286306;33;20084;-64
2022/06/08 04:31:26;;;;;;;4.18;0.88;;;16.70;99.90;;;;;;4306763;33;20064;-64
2022/06/08 04:33:53;;;;;;;0.80;0.77;;;16.70;99.90;;;;;;4306378;33;20446;-64
2022/06/08 04:36:19;;;;;;;0.40;0.40;;;16.90;99.90;;;;;;4307066;33;20100;-64
2022/06/08 04:38:45;;;;;;;2.53;0.88;;;16.90;99.90;;;;;;4290822;33;20075;-64
2022/06/08 04:41:10;;;;;;;0.85;0.80;;;17.00;99.90;;;;;;4303538;33;20059;-64
2022/06/08 04:43:37;;;;;;;0.43;0.43;;;17.10;99.90;;;;;;4304887;33;20088;-64
2022/06/08 04:46:03;;;;;;;0.30;0.30;;;17.10;99.90;;;;;;4303280;33;20566;-65
2022/06/08 04:48:28;;;;;;;0.37;0.37;;;17.20;99.90;;;;;;4305068;33;20064;-64
2022/06/08 04:50:54;;;;;;;0.30;0.30;;;17.10;99.90;;;;;;4305061;33;20124;-64
2022/06/08 04:53:19;;;;;;;0.47;0.47;;;17.30;99.90;;;;;;4304538;33;20084;-64
2022/06/08 04:55:45;;;;;;;0.30;0.30;;;17.30;99.90;;;;;;4303442;33;20095;-64
2022/06/08 04:58:10;;;;;;;1.77;0.80;;;17.40;99.90;;;;;;4305153;33;20080;-64
2022/06/08 05:00:36;;;;;;;0.40;0.40;;;17.50;99.90;;;;;;4300303;33;20072;-65
2022/06/08 05:03:02;;;;;;;0.40;0.40;;;17.60;99.90;;;;;;4296166;33;20088;-65
2022/06/08 05:05:31;;;;;;;0.40;0.40;;;17.70;99.90;;;;;;4297197;33;20108;-65
2022/06/08 05:07:58;;;;;;;0.40;0.40;;;17.70;99.90;;;;;;4297485;33;20101;-65
2022/06/08 05:10:26;;;;;;;0.30;0.30;;;17.80;99.90;;;;;;4301624;33;20731;-64
2022/06/08 05:12:52;;;;;;;0.40;0.40;;;17.70;99.90;;;;;;4301486;33;20533;-64
2022/06/08 05:15:21;;;;;;;1.15;0.98;;;17.80;99.90;;;;;;4297196;33;20084;-64
2022/06/08 05:17:47;;;;;;;0.28;0.28;;;17.80;99.90;;;;;;4284516;33;20510;-64
2022/06/08 05:20:14;;;;;;;0.40;0.40;;;17.70;99.90;;;;;;4297048;33;20124;-65
2022/06/08 05:22:40;;;;;;;1.42;0.90;;;17.70;99.90;;;;;;4300575;33;20080;-65
2022/06/08 05:25:09;;;;;;;0.32;0.32;;;17.80;99.90;;;;;;4303413;33;20085;-65
2022/06/08 05:27:35;;;;;;;0.65;0.50;;;17.80;99.90;;;;;;4284430;33;20220;-64
2022/06/08 05:30:02;;;;;;;0.30;0.30;;;17.80;99.90;;;;;;4290904;33;20730;-64
2022/06/08 05:32:29;;;;;;;0.50;0.50;;;17.90;99.90;;;;;;4270113;33;20068;-64
2022/06/08 05:34:54;;;;;;;0.32;0.32;;;18.00;99.90;;;;;;4300145;33;20091;-64
2022/06/08 05:37:20;;;;;;;0.20;0.20;;;18.20;99.90;;;;;;4296939;33;20431;-64
2022/06/08 05:39:46;;;;;;;0.40;0.40;;;18.30;99.90;;;;;;4294887;33;20599;-64
2022/06/08 05:42:12;;;;;;;0.35;0.35;;;18.30;99.90;;;;;;4300620;33;20083;-65
2022/06/08 05:44:38;;;;;;;2.53;0.50;;;18.40;99.90;;;;;;4294563;33;20419;-65
2022/06/08 05:47:04;;;;;;;2.87;0.88;;;18.40;99.90;;;;;;4299691;33;20092;-65
2022/06/08 05:49:33;;;;;;;1.08;0.60;;;18.40;99.90;;;;;;4299443;33;20075;-65
2022/06/08 05:51:59;;;;;;;0.30;0.30;;;18.50;99.90;;;;;;4297138;33;20099;-65
2022/06/08 05:54:25;;;;;;;0.40;0.40;;;18.50;99.90;;;;;;4301392;33;20108;-65
2022/06/08 05:56:50;;;;;;;2.10;0.50;;;18.50;99.90;;;;;;4299494;33;20068;-65
2022/06/08 05:59:16;;;;;;;0.30;0.30;;;18.60;99.90;;;;;;4298490;33;20087;-65
2022/06/08 06:01:42;;;;;;;1.00;0.55;;;18.50;99.90;;;;;;4299763;33;20153;-64
2022/06/08 06:04:08;;;;;;;0.50;0.50;;;18.70;99.90;;;;;;4296506;33;20403;-65
2022/06/08 06:06:34;;;;;;;1.48;0.85;;;18.80;99.90;;;;;;4298128;33;20119;-65
2022/06/08 06:09:00;;;;;;;0.43;0.43;;;18.90;99.90;;;;;;4298707;33;20564;-65
2022/06/08 06:11:26;;;;;;;0.30;0.30;;;19.00;99.90;;;;;;4292599;33;20583;-64
2022/06/08 06:13:52;;;;;;;0.40;0.40;;;19.00;99.90;;;;;;4301938;33;20113;-65
2022/06/08 06:16:17;;;;;;;0.30;0.30;;;19.00;99.90;;;;;;4298734;33;20084;-65
2022/06/08 06:18:43;;;;;;;0.40;0.40;;;19.00;99.90;;;;;;4300227;33;20069;-65
2022/06/08 06:21:20;;;;;;;0.37;0.37;;;19.10;99.90;;;;;;4302038;33;20116;-65
2022/06/08 06:23:46;;;;;;;0.50;0.50;;;19.30;99.90;;;;;;4299321;33;20573;-65
2022/06/08 06:26:12;;;;;;;0.30;0.30;;;19.50;99.90;;;;;;4297723;33;20624;-65
2022/06/08 06:28:37;;;;;;;0.70;0.55;;;19.70;99.90;;;;;;4295546;33;20083;-65
2022/06/08 06:31:03;;;;;;;0.30;0.30;;;19.80;99.90;;;;;;4296718;33;20083;-65
2022/06/08 06:33:29;;;;;;;0.40;0.40;;;19.90;99.90;;;;;;4295185;33;20080;-64
2022/06/08 06:35:56;;;;;;;3.28;1.45;;;19.90;99.90;;;;;;4295052;33;20481;-65
2022/06/08 06:38:21;;;;;;;0.25;0.25;;;19.90;99.90;;;;;;4298594;33;20806;-65
2022/06/08 06:40:47;;;;;;;0.20;0.20;;;19.90;99.90;;;;;;4295526;33;20080;-65
2022/06/08 06:43:12;;;;;;;0.40;0.40;;;20.00;99.90;;;;;;4299556;33;20171;-65
2022/06/08 06:45:38;;;;;;;0.30;0.30;;;20.00;99.90;;;;;;4297037;33;20087;-65
2022/06/08 06:48:04;;;;;;;0.40;0.40;;;20.00;99.90;;;;;;4300366;33;20093;-65
2022/06/08 06:50:31;;;;;;;0.50;0.50;;;20.00;99.90;;;;;;4297685;33;20175;-65
2022/06/08 06:52:59;;;;;;;0.32;0.32;;;20.00;99.90;;;;;;4298458;33;20228;-65
2022/06/08 06:55:30;;;;;;;0.30;0.30;;;20.10;99.90;;;;;;4297925;33;20524;-65
2022/06/08 06:57:56;;;;;;;;;;;20.10;99.90;;;;;;4296293;33;20148;-65
2022/06/08 07:00:23;;;;;;;0.98;0.40;;;20.10;99.90;;;;;;4294910;33;20039;-65
2022/06/08 07:02:48;;;;;;;1.00;0.60;;;20.20;99.90;;;;;;4296375;33;20072;-65
2022/06/08 07:05:17;;;;;;;0.40;0.40;;;20.30;99.90;;;;;;4294522;33;20096;-65
2022/06/08 07:07:42;;;;;;;0.37;0.37;;;20.20;99.90;;;;;;4293474;33;20471;-65
2022/06/08 07:10:08;;;;;;;0.30;0.30;;;20.30;99.90;;;;;;4293811;33;20188;-65
2022/06/08 07:12:33;;;;;;;0.90;0.85;;;20.40;99.90;;;;;;4293984;33;20596;-65
2022/06/08 07:14:59;;;;;;;0.55;0.30;;;20.50;99.90;;;;;;4298162;33;20149;-64
2022/06/08 07:17:25;;;;;;;0.50;0.50;;;20.50;99.90;;;;;;4295367;33;20406;-65
2022/06/08 07:19:51;;;;;;;0.28;0.28;;;20.50;99.90;;;;;;4294055;33;20069;-65
2022/06/08 07:22:17;;;;;;;2.08;0.75;;;20.50;99.90;;;;;;4295538;33;20876;-65
2022/06/08 07:24:43;;;;;;;0.50;0.50;;;20.50;99.90;;;;;;4296812;33;20326;-65
2022/06/08 07:27:09;;;;;;;0.32;0.32;;;20.50;99.90;;;;;;4288997;33;20084;-64
2022/06/08 07:29:34;;;;;;;0.82;0.77;;;20.50;99.90;;;;;;4294828;33;20662;-64
2022/06/08 07:32:00;;;;;;;0.45;0.45;;;20.60;99.90;;;;;;4295868;33;20075;-64
2022/06/08 07:34:26;;;;;;;0.20;0.20;;;20.70;99.90;;;;;;4293838;33;20088;-65
2022/06/08 07:36:52;;;;;;;0.55;0.55;;;20.80;99.90;;;;;;4293887;33;20238;-65
2022/06/08 07:39:19;;;;;;;1.70;0.73;;;21.00;99.90;;;;;;4291771;33;20433;-65
2022/06/08 07:41:46;;;;;;;0.40;0.40;;;21.30;99.90;;;;;;4292257;33;20100;-65
2022/06/08 07:44:12;;;;;;;0.30;0.30;;;21.40;99.90;;;;;;4286181;33;20814;-65
2022/06/08 07:46:39;;;;;;;0.30;0.30;;;21.40;99.90;;;;;;4284837;33;20084;-65
2022/06/08 07:49:36;;;;;;;0.30;0.30;;;21.50;99.90;;;;;;4286853;33;20176;-65
2022/06/08 07:51:53;;;;;;;0.20;0.20;;;21.60;99.90;;;;;;4265847;33;20124;-65
2022/06/08 07:54:22;;;;;;;0.30;0.30;;;21.70;99.90;;;;;;4284904;33;20684;-65
2022/06/08 07:56:48;;;;;;;0.40;0.40;;;22.00;99.90;;;;;;4288747;33;20137;-65
2022/06/08 07:59:14;;;;;;;0.30;0.30;;;22.20;99.90;;;;;;4292389;33;20141;-65
2022/06/08 08:01:40;;;;;;;0.20;0.20;;;22.30;99.90;;;;;;4289981;33;20552;-65
2022/06/08 08:04:05;;;;;;;0.45;0.45;;;22.40;99.90;;;;;;4295633;33;20080;-65
2022/06/08 08:06:31;;;;;;;0.30;0.30;;;22.50;99.90;;;;;;4288979;33;20088;-65
2022/06/08 08:08:57;;;;;;;0.30;0.30;;;22.70;99.90;;;;;;4294093;33;20433;-65
2022/06/08 08:11:26;;;;;;;0.32;0.32;;;22.70;99.90;;;;;;4293223;33;20778;-65
2022/06/08 08:13:52;;;;;;;1.48;0.40;;;22.70;99.90;;;;;;4293961;33;20392;-65
2022/06/08 08:16:18;;;;;;;0.52;0.47;;;22.90;99.90;;;;;;4290400;33;20076;-65
2022/06/08 08:18:43;;;;;;;0.30;0.30;;;23.20;99.90;;;;;;4288142;33;20108;-65
2022/06/08 08:21:09;;;;;;;0.22;0.22;;;23.60;99.90;;;;;;4291744;33;20059;-65
2022/06/08 08:23:34;;;;;;;0.40;0.40;;;23.70;99.90;;;;;;4292751;33;20548;-65
2022/06/08 08:26:00;;;;;;;0.45;0.35;;;23.20;99.90;;;;;;4291372;33;20081;-65
2022/06/08 08:28:26;;;;;;;0.30;0.30;;;22.60;99.90;;;;;;4288733;33;20495;-65
2022/06/08 08:30:51;;;;;;;0.30;0.30;;;22.40;99.90;;;;;;4293319;33;20189;-65
2022/06/08 08:33:16;;;;;;;0.30;0.30;;;22.40;99.90;;;;;;4291601;33;20120;-65
2022/06/08 08:35:42;;;;;;;0.30;0.30;;;22.40;99.90;;;;;;4296003;33;20100;-65
2022/06/08 08:38:08;;;;;;;0.32;0.32;;;22.70;99.90;;;;;;4295249;33;20214;-65
2022/06/08 08:40:53;;;;;;;0.30;0.30;;;23.10;99.90;;;;;;4293868;33;20096;-65
2022/06/08 08:43:24;;;;;;;0.30;0.30;;;23.10;99.90;;;;;;4292805;33;20076;-65
2022/06/08 08:46:01;;;;;;;;;;;23.20;99.90;;;;;;4291902;33;20064;-65
2022/06/08 08:48:32;;;;;;;0.35;0.35;;;23.30;99.90;;;;;;4291779;33;19967;-65
2022/06/08 08:51:06;;;;;;;0.28;0.28;;;23.30;99.90;;;;;;4290039;33;20100;-65
2022/06/08 08:53:47;;;;;;;0.28;0.28;;;23.20;99.90;;;;;;4282345;33;20085;-65
2022/06/08 08:56:17;;;;;;;0.15;0.15;;;23.20;99.90;;;;;;4297608;33;20059;-64
2022/06/08 08:58:45;;;;;;;0.30;0.30;;;23.10;99.90;;;;;;4301896;33;20235;-65
2022/06/08 09:01:29;;;;;;;0.20;0.20;;;23.50;99.90;;;;;;4299153;33;20485;-65
2022/06/08 09:04:02;;;;;;;0.20;0.20;;;23.80;99.60;;;;;;4292027;33;20076;-65
2022/06/08 09:06:31;;;;;;;0.17;0.17;;;23.90;98.80;;;;;;4297102;33;20079;-65
2022/06/08 09:09:02;;;;;;;0.20;0.20;;;24.10;98.40;;;;;;4284514;33;20173;-64
2022/06/08 09:11:33;;;;;;;0.25;0.25;;;24.20;98.50;;;;;;4293096;33;20660;-65
2022/06/08 09:14:06;;;;;;;0.20;0.20;;;24.10;97.90;;;;;;4295541;33;20108;-65
2022/06/08 09:16:38;;;;;;;0.13;0.13;;;24.10;98.20;;;;;;4292428;33;20589;-63
2022/06/08 09:19:25;;;;;;;0.10;0.10;;;24.30;98.50;;;;;;4296521;33;20423;-64
2022/06/08 09:21:59;;;;;;;0.30;0.30;;;24.10;98.90;;;;;;4294439;33;20076;-64
2022/06/08 09:24:40;;;;;;;0.28;0.28;;;24.00;98.30;;;;;;4292047;33;20108;-64
2022/06/08 09:27:28;;;;;;;0.20;0.20;;;23.80;98.40;;;;;;4290407;33;20088;-64
2022/06/08 09:30:00;;;;;;;0.20;0.20;;;23.60;98.80;;;;;;4290894;33;20111;-64
2022/06/08 09:32:45;;;;;;;0.20;0.20;;;23.60;99.00;;;;;;4292530;33;20092;-64
2022/06/08 09:35:32;;;;;;;0.20;0.20;;;23.60;98.60;;;;;;4296726;33;20218;-64
2022/06/08 09:38:04;;;;;;;0.10;0.10;;;23.60;98.30;;;;;;4297724;33;20068;-65
2022/06/08 09:40:40;;;;;;;0.60;0.60;;;23.60;98.80;;;;;;4298473;33;20089;-65
2022/06/08 09:43:41;;;;;;;0.35;0.35;;;23.70;99.30;;;;;;4297105;33;20441;-65
2022/06/08 09:51:25;;;;;;;0.22;0.22;;;23.60;99.60;;;;;;4289235;33;20522;-65
2022/06/08 09:51:33;;;;;;;0.30;0.22;;;23.40;99.90;;;;;;4287606;33;20121;-66
2022/06/08 09:52:20;;;;;;;0.20;0.20;;;23.40;99.90;;;;;;4285060;33;20104;-67
2022/06/08 09:55:13;;;;;;;0.30;0.30;;;23.10;99.90;;;;;;4303666;33;20088;-67
2022/06/08 09:57:52;;;;;;;0.20;0.20;;;23.00;99.90;;;;;;4293189;33;20240;-66
2022/06/08 10:00:32;;;;;;;0.40;0.25;;;23.00;99.90;;;;;;4292719;33;20077;-65
2022/06/08 10:03:29;;;;;;;0.20;0.20;;;23.00;99.90;;;;;;4304865;33;20081;-66
2022/06/08 10:06:16;;;;;;;0.30;0.30;;;23.00;99.90;;;;;;4293918;33;20153;-66
2022/06/08 10:09:10;;;;;;;0.30;0.30;;;22.90;99.90;;;;;;4289644;33;20133;-66
2022/06/08 10:11:44;;;;;;;0.25;0.25;;;22.90;99.90;;;;;;4290367;33;20120;-66
2022/06/08 10:14:39;;;;;;;0.30;0.30;;;23.10;99.90;;;;;;4288614;33;20857;-65
2022/06/08 10:17:16;;;;;;;0.20;0.20;;;23.00;99.90;;;;;;4287993;33;20096;-65
2022/06/08 10:20:01;;;;;;;0.30;0.30;;;23.00;99.90;;;;;;4291075;33;21398;-65
2022/06/08 10:22:35;;;;;;;1.00;0.90;;;23.00;99.90;;;;;;4291570;33;20096;-65
2022/06/08 10:25:29;;;;;;;0.30;0.30;;;23.20;99.90;;;;;;4290916;33;20406;-65
2022/06/08 10:28:04;;;;;;;1.25;0.85;;;23.70;99.90;;;;;;4290585;33;20120;-65
2022/06/08 10:30:35;;;;;;;0.50;0.50;;;24.60;98.80;;;;;;4289147;33;20096;-65
2022/06/08 10:33:10;;;;;;;0.10;0.10;;;24.70;97.20;;;;;;4279180;33;20083;-65
2022/06/08 10:35:42;;;;;;;0.20;0.20;;;24.40;97.30;;;;;;4275173;33;20262;-66
2022/06/08 10:38:21;;;;;;;0.20;0.20;;;24.20;97.80;;;;;;4283461;33;20526;-66
2022/06/08 10:40:51;;;;;;;0.20;0.20;;;24.10;98.10;;;;;;4291210;33;20595;-65
2022/06/08 10:43:20;;;;;;;0.10;0.10;;;24.10;97.80;;;;;;4290955;33;20859;-66
2022/06/08 10:45:53;;;;;;;0.13;0.13;;;24.00;97.60;;;;;;4287393;33;20075;-65
2022/06/08 10:48:26;;;;;;;0.35;0.35;;;24.00;97.50;;;;;;4286154;33;20718;-66
2022/06/08 10:51:12;;;;;;;0.10;0.10;;;24.00;97.70;;;;;;4282278;33;20088;-66
2022/06/08 10:54:58;;;;;;;0.40;0.40;;;23.90;98.30;;;;;;4282798;33;20494;-69
2022/06/08 10:56:35;;;;;;;0.55;0.45;;;24.00;97.20;;;;;;4273259;33;20145;-64
2022/06/08 10:59:14;;;;;;;0.52;0.30;;;24.10;97.10;;;;;;4286748;33;20639;-65
2022/06/08 11:02:10;;;;;;;0.20;0.20;;;24.00;97.40;;;;;;4283959;33;20222;-64
2022/06/08 11:04:40;;;;;;;0.22;0.22;;;23.80;97.20;;;;;;4282148;33;20091;-64
2022/06/08 11:07:10;;;;;;;0.10;0.10;;;23.80;97.50;;;;;;4286026;33;20099;-65
2022/06/08 11:09:39;;;;;;;0.20;0.20;;;23.70;97.80;;;;;;4288776;33;20439;-65
2022/06/08 11:12:15;;;;;;;0.10;0.10;;;23.80;97.70;;;;;;4292734;33;20435;-65
2022/06/08 11:14:51;;;;;;;0.20;0.20;;;23.70;97.60;;;;;;4291317;33;20120;-65
2022/06/08 11:17:27;;;;;;;0.20;0.20;;;23.70;97.70;;;;;;4288578;33;20108;-65
2022/06/08 11:20:01;;;;;;;0.10;0.10;;;23.70;98.00;;;;;;4285538;33;20093;-65
2022/06/08 11:22:32;;;;;;;0.20;0.20;;;23.70;97.70;;;;;;4290102;33;20493;-64
2022/06/08 11:25:04;;;;;;;0.20;0.20;;;23.70;98.10;;;;;;4276515;33;21041;-64
2022/06/08 11:27:32;;;;;;;0.10;0.10;;;24.00;97.50;;;;;;4280924;33;20117;-64
2022/06/08 11:30:22;;;;;;;0.10;0.10;;;24.70;96.90;;;;;;4274236;33;20418;-65
2022/06/08 11:32:53;;;;;;;0.22;0.22;;;25.60;96.60;;;;;;4283490;33;20419;-65
2022/06/08 11:35:58;;;;;;;0.20;0.20;;;25.80;95.60;;;;;;4286692;33;20121;-65
2022/06/08 11:38:53;;;;;;;0.30;0.30;;;25.70;95.10;;;;;;4297108;33;20080;-65
2022/06/08 11:41:38;;;;;;;0.20;0.20;;;26.50;94.30;;;;;;4298002;33;20465;-66
2022/06/08 11:44:16;;;;;;;0.20;0.20;;;26.60;93.30;;;;;;4294631;33;20516;-65
2022/06/08 11:46:47;;;;;;;0.10;0.10;;;26.30;92.60;;;;;;4293355;33;20104;-65
2022/06/08 11:49:37;;;;;;;0.20;0.20;;;26.00;94.00;;;;;;4287319;33;20092;-67
2022/06/08 11:52:24;;;;;;;0.20;0.20;;;25.70;93.60;;;;;;4289838;33;20929;-65
2022/06/08 11:55:19;;;;;;;0.20;0.20;;;25.40;93.70;;;;;;4289519;33;20116;-65
2022/06/08 11:58:05;;;;;;;0.10;0.10;;;25.00;94.40;;;;;;4281424;33;20096;-65
2022/06/08 12:00:34;;;;;;;0.15;0.15;;;25.00;94.20;;;;;;4292742;33;20545;-65
2022/06/08 12:03:17;;;;;;;0.17;0.17;;;25.00;94.50;;;;;;4291311;33;20089;-65
2022/06/08 12:05:50;;;;;;;0.13;0.13;;;25.10;94.20;;;;;;4297107;33;20080;-65
2022/06/08 12:08:39;;;;;;;0.10;0.10;;;24.90;94.10;;;;;;4298474;33;20088;-66
2022/06/08 12:11:06;;;;;;;0.40;0.40;;;24.90;94.30;;;;;;4272698;33;20084;-65
2022/06/08 12:13:32;;;;;;;0.35;0.22;;;25.00;94.10;;;;;;4292929;33;20087;-65
2022/06/08 12:16:20;;;;;;;0.10;0.10;;;25.10;94.00;;;;;;4285203;33;20210;-67
2022/06/08 12:18:53;;;;;;;0.10;0.10;;;25.60;94.40;;;;;;4290451;33;20506;-66
2022/06/08 12:21:25;;;;;;;0.30;0.25;;;27.00;93.20;;;;;;4299652;33;20102;-65
2022/06/08 12:24:20;;;;;;;0.10;0.10;;;27.70;91.40;;;;;;4293011;33;20086;-65
2022/06/08 12:26:56;;;;;;;0.00;0.00;;;28.00;90.10;;;;;;4298627;33;20076;-65
2022/06/08 12:29:45;;;;;;;0.03;0.03;;;28.60;89.10;;;;;;4296258;33;20113;-65
2022/06/08 12:32:16;;;;;;;0.03;0.03;;;29.10;86.00;;;;;;4300534;33;20141;-66
2022/06/08 12:35:04;;;;;;;0.10;0.10;;;29.60;84.60;;;;;;4297071;33;20089;-65
2022/06/08 12:37:36;;;;;;;0.00;0.00;;;28.90;84.40;;;;;;4297315;33;20453;-66
2022/06/08 12:40:21;;;;;;;0.00;0.00;;;27.80;86.30;;;;;;4299640;33;20505;-66
2022/06/08 12:42:53;;;;;;;0.08;0.08;;;27.10;88.70;;;;;;4296402;33;20083;-66
2022/06/08 12:45:40;;;;;;;0.10;0.10;;;26.50;90.30;;;;;;4294957;33;20104;-66
2022/06/08 12:48:28;;;;;;;0.00;0.00;;;26.10;91.20;;;;;;4282274;33;20084;-66
2022/06/08 12:50:56;;;;;;;0.10;0.10;;;26.00;91.20;;;;;;4286072;33;20141;-66
2022/06/08 12:53:22;;;;;;;0.20;0.20;;;25.70;91.30;;;;;;4295330;33;20561;-67
2022/06/08 12:55:49;;;;;;;0.10;0.10;;;25.50;91.80;;;;;;4295421;33;21420;-66
2022/06/08 12:58:15;;;;;;;0.10;0.10;;;26.00;91.40;;;;;;4299226;33;20075;-65
2022/06/08 13:00:53;;;;;;;0.10;0.10;;;27.70;90.90;;;;;;4296892;33;20157;-65
2022/06/08 13:03:25;;;;;;;0.10;0.10;;;28.50;88.10;;;;;;4298468;33;20498;-65
2022/06/08 13:05:51;;;;;;;0.10;0.10;;;28.60;85.20;;;;;;4283769;33;20205;-66
2022/06/08 13:08:20;;;;;;;0.10;0.10;;;28.20;85.60;;;;;;4302413;33;20137;-65
2022/06/08 13:10:50;;;;;;;0.10;0.10;;;27.60;87.00;;;;;;4300959;33;20083;-65
2022/06/08 13:13:19;;;;;;;0.00;0.00;;;27.10;88.10;;;;;;4300998;33;20560;-66